Time;durP1;ratioP1;P1;durP2;ratioP2;P2;SDS_P1;SDS_P2;PMS_P1;PMS_P2;Temp;Humidity;BMP_temperature;BMP_pressure;BME280_temperature;BME280_humidity;BME280_pressure;Samples;Min_cycle;Max_cycle;Signal;HPM_P1;HPM_P2
2023/07/31 00:00:39;;;;;;;7.85;2.45;;;;;;;;;;4986337;28;20046;-62
2023/07/31 00:03:05;;;;;;;4.53;1.88;;;;;;;;;;4987917;28;20069;-61
2023/07/31 00:05:32;;;;;;;7.32;2.15;;;;;;;;;;4975082;28;20045;-61
2023/07/31 00:07:58;;;;;;;4.65;1.65;;;;;;;;;;4987766;28;20640;-61
2023/07/31 00:10:24;;;;;;;4.25;1.90;;;;;;;;;;4990303;28;20100;-61
2023/07/31 00:12:50;;;;;;;5.15;2.10;;;;;;;;;;4987945;28;20055;-61
2023/07/31 00:15:16;;;;;;;2.47;1.65;;;;;;;;;;4986635;28;20038;-61
2023/07/31 00:17:42;;;;;;;3.40;1.83;;;;;;;;;;4972426;28;20508;-61
2023/07/31 00:20:09;;;;;;;6.78;2.25;;;;;;;;;;4970467;28;20069;-61
2023/07/31 00:22:36;;;;;;;4.03;1.63;;;;;;;;;;4987985;28;20038;-61
2023/07/31 00:25:02;;;;;;;2.55;1.40;;;;;;;;;;4986937;28;20481;-62
2023/07/31 00:27:28;;;;;;;4.55;1.80;;;;;;;;;;4975462;28;20058;-61
2023/07/31 00:29:55;;;;;;;5.43;1.73;;;;;;;;;;4974599;28;20402;-61
2023/07/31 00:32:21;;;;;;;4.03;1.58;;;;;;;;;;4984999;28;20046;-61
2023/07/31 00:34:47;;;;;;;3.17;1.38;;;;;;;;;;4990673;28;20078;-60
2023/07/31 00:37:13;;;;;;;2.42;1.15;;;;;;;;;;4987377;28;20034;-60
2023/07/31 00:39:39;;;;;;;2.83;1.20;;;;;;;;;;4987528;28;20386;-61
2023/07/31 00:42:05;;;;;;;4.93;2.15;;;;;;;;;;4987298;28;20034;-61
2023/07/31 00:44:32;;;;;;;3.78;1.92;;;;;;;;;;4990663;28;20061;-60
2023/07/31 00:46:59;;;;;;;3.03;1.70;;;;;;;;;;4966487;28;20043;-61
2023/07/31 00:49:25;;;;;;;4.35;1.58;;;;;;;;;;4988009;28;20050;-61
2023/07/31 00:51:51;;;;;;;2.35;1.30;;;;;;;;;;4952566;28;20038;-60
2023/07/31 00:54:18;;;;;;;4.25;1.92;;;;;;;;;;4990913;28;20574;-60
2023/07/31 00:56:45;;;;;;;5.25;2.40;;;;;;;;;;4986265;28;20050;-60
2023/07/31 00:59:12;;;;;;;4.63;1.80;;;;;;;;;;4968725;28;20038;-64
2023/07/31 01:01:38;;;;;;;3.20;2.05;;;;;;;;;;4986562;28;20112;-61
2023/07/31 01:04:05;;;;;;;3.75;1.90;;;;;;;;;;4986622;28;20042;-61
2023/07/31 01:06:40;;;;;;;6.05;1.80;;;;;;;;;;4986172;28;20045;-60
2023/07/31 01:09:16;;;;;;;3.05;1.88;;;;;;;;;;4963028;28;20093;-62
2023/07/31 01:11:52;;;;;;;4.28;1.52;;;;;;;;;;4986967;28;20042;-60
2023/07/31 01:14:18;;;;;;;3.72;1.90;;;;;;;;;;4989739;28;20197;-60
2023/07/31 01:16:44;;;;;;;4.55;2.03;;;;;;;;;;4990937;28;20126;-60
2023/07/31 01:19:11;;;;;;;3.88;1.50;;;;;;;;;;4968581;28;20097;-61
2023/07/31 01:21:46;;;;;;;5.25;2.10;;;;;;;;;;4986492;28;20481;-61
2023/07/31 01:24:19;;;;;;;5.22;1.85;;;;;;;;;;4990587;28;20188;-61
2023/07/31 01:26:48;;;;;;;3.65;1.50;;;;;;;;;;4989492;28;20106;-61
2023/07/31 01:29:32;;;;;;;5.50;2.20;;;;;;;;;;4992102;28;20405;-60
2023/07/31 01:32:01;;;;;;;4.53;2.10;;;;;;;;;;4972250;28;20101;-61
2023/07/31 01:34:28;;;;;;;4.32;1.95;;;;;;;;;;4992506;28;20111;-61
2023/07/31 01:36:54;;;;;;;4.63;2.17;;;;;;;;;;4990558;28;20145;-61
2023/07/31 01:39:21;;;;;;;5.45;2.15;;;;;;;;;;4992990;28;20034;-61
2023/07/31 01:41:47;;;;;;;4.53;1.48;;;;;;;;;;4968802;28;20069;-61
2023/07/31 01:44:13;;;;;;;4.43;1.75;;;;;;;;;;4989911;28;20064;-61
2023/07/31 01:46:39;;;;;;;6.10;2.00;;;;;;;;;;4990022;28;20466;-61
2023/07/31 01:49:06;;;;;;;3.03;1.60;;;;;;;;;;4989637;28;20733;-61
2023/07/31 01:51:35;;;;;;;5.35;1.75;;;;;;;;;;4988996;28;20683;-60
2023/07/31 01:54:02;;;;;;;3.70;1.63;;;;;;;;;;4995541;28;20060;-61
2023/07/31 01:56:28;;;;;;;7.85;2.03;;;;;;;;;;4995844;28;20508;-61
2023/07/31 01:58:54;;;;;;;4.00;2.00;;;;;;;;;;4968673;28;20122;-61
2023/07/31 02:01:20;;;;;;;4.30;1.45;;;;;;;;;;4992204;28;20053;-61
2023/07/31 02:03:46;;;;;;;5.57;2.20;;;;;;;;;;4967533;28;20463;-61
2023/07/31 02:06:12;;;;;;;4.85;2.13;;;;;;;;;;4973730;28;20398;-61
2023/07/31 02:08:39;;;;;;;6.97;1.75;;;;;;;;;;4991087;28;20501;-61
2023/07/31 02:11:05;;;;;;;2.72;1.58;;;;;;;;;;4975426;28;20042;-61
2023/07/31 02:13:31;;;;;;;3.50;1.23;;;;;;;;;;4987749;28;20039;-61
2023/07/31 02:15:57;;;;;;;3.03;1.25;;;;;;;;;;4988554;28;20039;-61
2023/07/31 02:18:23;;;;;;;4.57;1.90;;;;;;;;;;4988737;28;20976;-60
2023/07/31 02:20:51;;;;;;;3.63;1.58;;;;;;;;;;4988685;28;20046;-61
2023/07/31 02:23:18;;;;;;;4.82;1.83;;;;;;;;;;4989049;28;20521;-61
2023/07/31 02:25:44;;;;;;;6.25;2.05;;;;;;;;;;4971136;28;20576;-61
2023/07/31 02:28:10;;;;;;;4.22;1.42;;;;;;;;;;4986949;28;20050;-61
2023/07/31 02:30:36;;;;;;;3.75;1.45;;;;;;;;;;4988923;28;20050;-61
2023/07/31 02:33:02;;;;;;;3.03;1.52;;;;;;;;;;4982894;28;20140;-61
2023/07/31 02:35:29;;;;;;;5.05;1.63;;;;;;;;;;4971696;28;20099;-61
2023/07/31 02:37:55;;;;;;;4.05;1.63;;;;;;;;;;4977309;28;20497;-63
2023/07/31 02:40:21;;;;;;;2.95;1.45;;;;;;;;;;4974853;28;20042;-61
2023/07/31 02:42:47;;;;;;;2.83;1.85;;;;;;;;;;4989768;28;20054;-61
2023/07/31 02:45:13;;;;;;;4.55;2.17;;;;;;;;;;4967694;28;20046;-61
2023/07/31 02:47:39;;;;;;;4.60;1.95;;;;;;;;;;4985183;28;20042;-61
2023/07/31 02:50:06;;;;;;;7.07;2.08;;;;;;;;;;4989170;28;20045;-61
2023/07/31 02:52:32;;;;;;;3.58;1.80;;;;;;;;;;4986492;28;20042;-62
2023/07/31 02:54:59;;;;;;;4.95;1.77;;;;;;;;;;4982591;28;20038;-61
2023/07/31 02:57:25;;;;;;;5.65;1.88;;;;;;;;;;4986429;28;20046;-60
2023/07/31 02:59:51;;;;;;;3.83;1.48;;;;;;;;;;4986541;28;20125;-60
2023/07/31 03:02:17;;;;;;;2.10;1.58;;;;;;;;;;4953604;28;20038;-61
2023/07/31 03:04:43;;;;;;;2.13;1.17;;;;;;;;;;4988274;28;20050;-61
2023/07/31 03:07:09;;;;;;;3.15;1.70;;;;;;;;;;4990359;28;20133;-62
2023/07/31 03:09:36;;;;;;;6.70;1.90;;;;;;;;;;4988045;28;20035;-62
2023/07/31 03:12:02;;;;;;;2.53;1.48;;;;;;;;;;4988282;28;20081;-64
2023/07/31 03:14:28;;;;;;;4.85;1.80;;;;;;;;;;4968097;28;20058;-61
2023/07/31 03:16:54;;;;;;;2.25;1.20;;;;;;;;;;4992271;28;20108;-61
2023/07/31 03:19:20;;;;;;;2.83;1.20;;;;;;;;;;4987809;28;20030;-61
2023/07/31 03:21:46;;;;;;;2.63;1.30;;;;;;;;;;4987065;28;20129;-62
2023/07/31 03:24:12;;;;;;;3.28;1.20;;;;;;;;;;4991733;28;20509;-61
2023/07/31 03:26:41;;;;;;;2.42;1.10;;;;;;;;;;4988655;28;20118;-60
2023/07/31 03:29:07;;;;;;;1.48;0.98;;;;;;;;;;4986369;28;20584;-61
2023/07/31 03:31:33;;;;;;;3.03;1.10;;;;;;;;;;4966592;28;20375;-61
2023/07/31 03:33:59;;;;;;;1.42;1.00;;;;;;;;;;4990926;28;20114;-61
2023/07/31 03:36:25;;;;;;;3.85;1.10;;;;;;;;;;4989906;28;20046;-61
2023/07/31 03:38:52;;;;;;;2.47;1.10;;;;;;;;;;4987857;28;20108;-61
2023/07/31 03:41:18;;;;;;;2.60;0.90;;;;;;;;;;4975349;28;20420;-61
2023/07/31 03:43:46;;;;;;;2.30;1.10;;;;;;;;;;4990263;28;20322;-59
2023/07/31 03:46:12;;;;;;;2.17;0.70;;;;;;;;;;4990298;28;20053;-60
2023/07/31 03:48:38;;;;;;;3.08;1.20;;;;;;;;;;4987045;28;20488;-60
2023/07/31 03:51:04;;;;;;;1.25;0.88;;;;;;;;;;4987578;28;20049;-60
2023/07/31 03:53:30;;;;;;;1.90;0.80;;;;;;;;;;4987021;28;20544;-60
2023/07/31 03:55:56;;;;;;;2.90;1.20;;;;;;;;;;4987127;28;20485;-60
2023/07/31 03:58:22;;;;;;;3.05;0.90;;;;;;;;;;4987932;28;20063;-60
2023/07/31 04:00:49;;;;;;;1.50;1.00;;;;;;;;;;4985620;28;20478;-61
2023/07/31 04:03:15;;;;;;;2.20;1.25;;;;;;;;;;4983338;28;20054;-60
2023/07/31 04:05:41;;;;;;;1.60;0.70;;;;;;;;;;4967278;28;20069;-61
2023/07/31 04:08:07;;;;;;;3.88;1.02;;;;;;;;;;4967903;28;20080;-61
2023/07/31 04:10:33;;;;;;;1.00;0.60;;;;;;;;;;4988011;28;20049;-61
2023/07/31 04:13:00;;;;;;;1.35;1.00;;;;;;;;;;4984627;28;20046;-61
2023/07/31 04:15:26;;;;;;;2.53;1.27;;;;;;;;;;4985711;28;20088;-60
2023/07/31 04:17:53;;;;;;;0.85;0.73;;;;;;;;;;4988427;28;20046;-61
2023/07/31 04:20:19;;;;;;;1.08;0.77;;;;;;;;;;4981896;28;20616;-61
2023/07/31 04:22:45;;;;;;;0.98;0.57;;;;;;;;;;4985581;28;20046;-60
2023/07/31 04:25:11;;;;;;;2.05;0.80;;;;;;;;;;4985125;28;20034;-61
2023/07/31 04:27:37;;;;;;;1.13;0.70;;;;;;;;;;4984421;28;20500;-61
2023/07/31 04:30:03;;;;;;;2.92;0.90;;;;;;;;;;4986775;28;20124;-61
2023/07/31 04:32:30;;;;;;;1.63;0.95;;;;;;;;;;4981720;28;20038;-61
2023/07/31 04:34:56;;;;;;;1.23;0.85;;;;;;;;;;4991958;28;20124;-61
2023/07/31 04:37:22;;;;;;;1.33;0.93;;;;;;;;;;4983863;28;20161;-61
2023/07/31 04:39:48;;;;;;;1.65;0.80;;;;;;;;;;4988270;28;20093;-61
2023/07/31 04:42:14;;;;;;;2.53;1.23;;;;;;;;;;4984355;28;20129;-61
2023/07/31 04:44:40;;;;;;;3.65;1.20;;;;;;;;;;4987017;28;20050;-61
2023/07/31 04:47:06;;;;;;;1.40;1.00;;;;;;;;;;4985855;28;20046;-61
2023/07/31 04:49:33;;;;;;;2.00;1.27;;;;;;;;;;4987409;28;20048;-61
2023/07/31 04:51:59;;;;;;;3.10;1.42;;;;;;;;;;4972943;28;20053;-61
2023/07/31 04:54:25;;;;;;;2.17;1.33;;;;;;;;;;4972649;28;20048;-61
2023/07/31 04:56:52;;;;;;;3.25;1.80;;;;;;;;;;4990004;28;20038;-61
2023/07/31 04:59:18;;;;;;;3.40;2.40;;;;;;;;;;4987868;28;20113;-61
2023/07/31 05:01:47;;;;;;;3.92;1.90;;;;;;;;;;4988523;28;20513;-61
2023/07/31 05:04:15;;;;;;;4.38;2.40;;;;;;;;;;4984171;28;20053;-61
2023/07/31 05:06:41;;;;;;;3.33;1.83;;;;;;;;;;4967713;28;20050;-59
2023/07/31 05:09:09;;;;;;;6.53;2.45;;;;;;;;;;4986655;28;20054;-60
2023/07/31 05:11:35;;;;;;;5.82;2.50;;;;;;;;;;4988646;28;20045;-61
2023/07/31 05:14:01;;;;;;;5.85;2.85;;;;;;;;;;4987275;28;20175;-61
2023/07/31 05:16:27;;;;;;;6.18;2.40;;;;;;;;;;4988104;28;20100;-61
2023/07/31 05:18:54;;;;;;;4.65;2.42;;;;;;;;;;4986994;28;20034;-61
2023/07/31 05:21:20;;;;;;;5.35;2.97;;;;;;;;;;4990947;28;20453;-61
2023/07/31 05:23:47;;;;;;;4.93;2.50;;;;;;;;;;4988320;28;20042;-61
2023/07/31 05:26:13;;;;;;;6.03;2.90;;;;;;;;;;4987405;28;20093;-62
2023/07/31 05:28:39;;;;;;;5.65;2.58;;;;;;;;;;4978552;28;20050;-61
2023/07/31 05:31:07;;;;;;;5.47;3.17;;;;;;;;;;4986903;28;20573;-62
2023/07/31 05:33:33;;;;;;;6.35;2.65;;;;;;;;;;4969209;28;20404;-61
2023/07/31 05:35:59;;;;;;;7.65;4.20;;;;;;;;;;4985868;28;20050;-61
2023/07/31 05:38:25;;;;;;;4.80;2.97;;;;;;;;;;4969769;28;20050;-61
2023/07/31 05:40:51;;;;;;;6.40;3.35;;;;;;;;;;4989536;28;20039;-61
2023/07/31 05:43:17;;;;;;;10.93;3.83;;;;;;;;;;4966740;28;20134;-61
2023/07/31 05:45:44;;;;;;;5.90;3.35;;;;;;;;;;4982225;28;20042;-61
2023/07/31 05:48:10;;;;;;;11.13;3.95;;;;;;;;;;4989643;28;20050;-61
2023/07/31 05:50:38;;;;;;;9.27;3.80;;;;;;;;;;4966217;28;20096;-61
2023/07/31 05:53:05;;;;;;;7.22;4.35;;;;;;;;;;4987520;28;20469;-61
2023/07/31 05:55:31;;;;;;;9.32;4.28;;;;;;;;;;4986746;28;20047;-59
2023/07/31 05:57:57;;;;;;;11.25;5.15;;;;;;;;;;4984976;28;20088;-61
2023/07/31 06:00:23;;;;;;;11.18;5.00;;;;;;;;;;4986010;28;20073;-61
2023/07/31 06:02:49;;;;;;;9.63;4.43;;;;;;;;;;4986983;28;20508;-61
2023/07/31 06:05:15;;;;;;;11.98;3.95;;;;;;;;;;4973631;28;20070;-61
2023/07/31 06:07:42;;;;;;;8.23;3.38;;;;;;;;;;4986455;28;20057;-61
2023/07/31 06:10:09;;;;;;;9.85;3.90;;;;;;;;;;4976390;28;20513;-61
2023/07/31 06:12:35;;;;;;;6.93;3.20;;;;;;;;;;4975186;28;20402;-61
2023/07/31 06:15:03;;;;;;;7.55;2.80;;;;;;;;;;4984200;28;20058;-60
2023/07/31 06:17:29;;;;;;;4.85;2.78;;;;;;;;;;4987432;28;20035;-61
2023/07/31 06:19:56;;;;;;;5.95;3.28;;;;;;;;;;4966989;28;20050;-61
2023/07/31 06:22:23;;;;;;;7.45;3.25;;;;;;;;;;4988653;28;20515;-61
2023/07/31 06:24:49;;;;;;;6.22;3.17;;;;;;;;;;4987110;28;20254;-61
2023/07/31 06:27:15;;;;;;;7.88;3.15;;;;;;;;;;4985984;28;20046;-62
2023/07/31 06:29:43;;;;;;;6.05;3.33;;;;;;;;;;4986164;28;20081;-61
2023/07/31 06:32:09;;;;;;;9.13;4.15;;;;;;;;;;4979601;28;20050;-61
2023/07/31 06:34:35;;;;;;;8.55;3.90;;;;;;;;;;4995476;28;20038;-61
2023/07/31 06:37:01;;;;;;;7.03;3.17;;;;;;;;;;4991835;28;20097;-61
2023/07/31 06:39:27;;;;;;;5.75;3.70;;;;;;;;;;4987457;28;20142;-61
2023/07/31 06:41:53;;;;;;;7.10;4.05;;;;;;;;;;4986050;28;20066;-61
2023/07/31 06:44:19;;;;;;;10.93;5.13;;;;;;;;;;4986185;28;20049;-60
2023/07/31 06:46:45;;;;;;;7.15;4.63;;;;;;;;;;4972268;28;20482;-61
2023/07/31 06:49:12;;;;;;;9.35;3.80;;;;;;;;;;4970984;28;20342;-61
2023/07/31 06:51:38;;;;;;;8.13;4.00;;;;;;;;;;4948124;28;20046;-61
2023/07/31 06:54:04;;;;;;;10.35;5.18;;;;;;;;;;4986564;28;20427;-61
2023/07/31 06:56:30;;;;;;;5.75;3.55;;;;;;;;;;4985003;28;20504;-61
2023/07/31 06:58:57;;;;;;;8.98;3.38;;;;;;;;;;4980218;28;20046;-60
2023/07/31 07:01:23;;;;;;;9.68;3.55;;;;;;;;;;4986076;28;20077;-61
2023/07/31 07:03:50;;;;;;;6.00;2.90;;;;;;;;;;4966390;28;20046;-61
2023/07/31 07:06:19;;;;;;;8.52;4.07;;;;;;;;;;4983935;28;20144;-62
2023/07/31 07:08:46;;;;;;;8.43;3.65;;;;;;;;;;4984989;28;20053;-61
2023/07/31 07:11:12;;;;;;;7.65;3.83;;;;;;;;;;4983563;28;20046;-61
2023/07/31 07:13:38;;;;;;;6.22;3.80;;;;;;;;;;4983026;28;20038;-62
2023/07/31 07:16:04;;;;;;;6.97;3.00;;;;;;;;;;4986573;28;20054;-62
2023/07/31 07:18:31;;;;;;;6.15;3.45;;;;;;;;;;4983241;28;20791;-61
2023/07/31 07:20:58;;;;;;;5.53;2.47;;;;;;;;;;4965267;28;20052;-60
2023/07/31 07:23:24;;;;;;;6.20;2.05;;;;;;;;;;4979606;28;20042;-61
2023/07/31 07:25:51;;;;;;;5.95;2.65;;;;;;;;;;4981361;28;20062;-61
2023/07/31 07:28:17;;;;;;;3.58;2.00;;;;;;;;;;4969623;28;20404;-62
2023/07/31 07:30:43;;;;;;;5.47;2.67;;;;;;;;;;4983019;28;20344;-61
2023/07/31 07:33:10;;;;;;;5.15;2.08;;;;;;;;;;4982661;28;20050;-62
2023/07/31 07:35:36;;;;;;;6.50;2.17;;;;;;;;;;4975490;28;20038;-61
2023/07/31 07:38:03;;;;;;;10.20;3.28;;;;;;;;;;4986850;28;20042;-61
2023/07/31 07:40:29;;;;;;;3.85;1.65;;;;;;;;;;4989526;28;20046;-61
2023/07/31 07:42:55;;;;;;;2.90;1.25;;;;;;;;;;4994133;28;20038;-65
2023/07/31 07:45:22;;;;;;;2.03;1.50;;;;;;;;;;4993462;28;20038;-61
2023/07/31 07:47:48;;;;;;;3.63;1.50;;;;;;;;;;4990555;28;20056;-62
2023/07/31 07:50:14;;;;;;;2.35;1.38;;;;;;;;;;4982707;28;20034;-61
2023/07/31 07:52:40;;;;;;;5.07;1.80;;;;;;;;;;4983693;28;20042;-61
2023/07/31 07:55:06;;;;;;;1.85;1.38;;;;;;;;;;4965918;28;20049;-61
2023/07/31 07:57:33;;;;;;;1.92;1.40;;;;;;;;;;4966748;28;20042;-61
2023/07/31 07:59:59;;;;;;;3.75;0.90;;;;;;;;;;4990591;28;20540;-61
2023/07/31 08:02:25;;;;;;;2.95;1.52;;;20.30;99.90;;;;;;4985568;28;20045;-62
2023/07/31 08:04:51;;;;;;;2.03;0.63;;;;;;;;;;4984859;28;20419;-59
2023/07/31 08:07:17;;;;;;;1.48;0.60;;;;;;;;;;4967002;28;20391;-61
2023/07/31 08:09:43;;;;;;;2.33;1.17;;;;;;;;;;4985372;28;20048;-61
2023/07/31 08:12:09;;;;;;;2.33;0.77;;;;;;;;;;4987799;28;20424;-61
2023/07/31 08:14:36;;;;;;;0.88;0.45;;;;;;;;;;4985172;28;20050;-61
2023/07/31 08:17:02;;;;;;;0.65;0.50;;;;;;;;;;4986808;28;20046;-61
2023/07/31 08:19:28;;;;;;;3.55;1.08;;;;;;;;;;4985457;28;20068;-61
2023/07/31 08:21:55;;;;;;;0.52;0.40;;;;;;;;;;4954545;28;20227;-61
2023/07/31 08:24:21;;;;;;;0.63;0.40;;;;;;;;;;4987186;28;20050;-61
2023/07/31 08:26:48;;;;;;;0.40;0.32;;;;;;;;;;4978263;28;20069;-60
2023/07/31 08:29:14;;;;;;;1.50;0.30;;;;;;;;;;4968930;28;20134;-61
2023/07/31 08:31:40;;;;;;;0.95;0.52;;;;;;;;;;4981659;28;20469;-61
2023/07/31 08:34:06;;;;;;;0.88;0.40;;;;;;;;;;4986150;28;20081;-61
2023/07/31 08:36:32;;;;;;;0.80;0.40;;;;;;;;;;4981106;28;20054;-62
2023/07/31 08:38:58;;;;;;;1.38;0.30;;;;;;;;;;4982913;28;20457;-61
2023/07/31 08:41:25;;;;;;;1.23;0.70;;;;;;;;;;4982491;28;20046;-61
2023/07/31 08:43:52;;;;;;;1.40;0.75;;;;;;;;;;4964398;28;20050;-61
2023/07/31 08:46:19;;;;;;;0.50;0.45;;;;;;;;;;4966742;28;20038;-61
2023/07/31 08:48:47;;;;;;;0.93;0.52;;;;;;;;;;4982185;28;20409;-64
2023/07/31 08:51:14;;;;;;;0.65;0.57;;;;;;;;;;4981106;28;20136;-60
2023/07/31 08:53:40;;;;;;;2.10;1.08;;;;;;;;;;4981749;28;20042;-61
2023/07/31 08:56:07;;;;;;;1.85;0.60;;;;;;;;;;4981630;28;20259;-61
2023/07/31 08:58:33;;;;;;;1.35;0.85;;;;;;;;;;4979280;28;20041;-61
2023/07/31 09:01:01;;;;;;;1.52;0.70;;;;;;;;;;4982041;28;20055;-60
2023/07/31 09:03:27;;;;;;;0.98;0.77;;;;;;;;;;4982472;28;20093;-61
2023/07/31 09:05:54;;;;;;;0.98;0.70;;;;;;;;;;4978276;28;20042;-61
2023/07/31 09:08:21;;;;;;;1.83;0.70;;;;;;;;;;4963172;28;20094;-61
2023/07/31 09:10:49;;;;;;;2.08;0.60;;;;;;;;;;4979920;28;20051;-61
2023/07/31 09:13:16;;;;;;;1.23;0.50;;;;;;;;;;4981434;28;20046;-61
2023/07/31 09:15:46;;;;;;;4.95;1.15;;;;;;;;;;4978798;28;20070;-61
2023/07/31 09:18:14;;;;;;;1.80;0.82;;;;;;;;;;4980188;28;20097;-61
2023/07/31 09:20:40;;;;;;;1.50;0.68;;;;;;;;;;4980893;28;20047;-61
2023/07/31 09:23:10;;;;;;;0.90;0.70;;;;;;;;;;4981857;28;20097;-61
2023/07/31 09:25:37;;;;;;;2.95;0.75;;;;;;;;;;4975065;28;20038;-60
2023/07/31 09:28:04;;;;;;;1.88;0.60;;;;;;;;;;4987651;28;20049;-61
2023/07/31 09:30:31;;;;;;;1.85;0.80;;;;;;;;;;4988792;28;20046;-61
2023/07/31 09:33:07;;;;;;;3.97;0.95;;;;;;;;;;4976614;28;20079;-61
2023/07/31 09:35:34;;;;;;;3.60;0.88;;;;;;;;;;4988056;28;20046;-62
2023/07/31 09:38:03;;;;;;;1.27;0.60;;;;;;;;;;4984454;28;20554;-61
2023/07/31 09:40:30;;;;;;;2.13;0.70;;;;;;;;;;4954566;28;20140;-62
2023/07/31 09:43:17;;;;;;;2.47;0.70;;;;;;;;;;4986886;28;20077;-62
2023/07/31 09:45:44;;;;;;;1.63;0.45;;;;;;;;;;4993818;28;20062;-61
2023/07/31 09:48:11;;;;;;;1.15;0.60;;;;;;;;;;4983959;28;20034;-61
2023/07/31 09:50:39;;;;;;;2.15;0.77;;;;;;;;;;4985869;28;20101;-61
2023/07/31 09:53:06;;;;;;;1.00;0.50;;;;;;;;;;4992953;28;20050;-61
2023/07/31 09:55:38;;;;;;;1.85;0.45;;;;;;;;;;4987243;28;20108;-61
2023/07/31 09:58:06;;;;;;;3.13;0.80;;;;;;;;;;4985340;28;20050;-61
2023/07/31 10:00:32;;;;;;;1.73;0.60;;;;;;;;;;4985827;28;20042;-61
2023/07/31 10:03:04;;;;;;;2.15;0.45;;;;;;;;;;4987814;28;20408;-61
2023/07/31 10:05:57;;;;;;;2.03;0.52;;;;;;;;;;4954940;28;20397;-61
2023/07/31 10:08:29;;;;;;;0.82;0.40;;;;;;;;;;4983231;28;20136;-61
2023/07/31 10:10:58;;;;;;;0.60;0.50;;;;;;;;;;4993259;28;20361;-61
2023/07/31 10:13:25;;;;;;;1.45;0.70;;;;;;;;;;4985704;28;20065;-62
2023/07/31 10:15:51;;;;;;;0.98;0.63;;;;;;;;;;4958919;28;20510;-61
2023/07/31 10:18:18;;;;;;;1.25;0.40;;;;;;;;;;4961921;28;20448;-61
2023/07/31 10:20:45;;;;;;;2.47;0.85;;;;;;;;;;4984677;28;20391;-61
2023/07/31 10:23:11;;;;;;;3.80;0.77;;;;;;;;;;4978156;28;20116;-62
2023/07/31 10:25:37;;;;;;;2.47;1.00;;;;;;;;;;4986635;28;20030;-61
2023/07/31 10:28:03;;;;;;;2.20;0.93;;;;;;;;;;4987712;28;20050;-61
2023/07/31 10:30:31;;;;;;;3.00;0.98;;;;;;;;;;4986607;28;20038;-61
2023/07/31 10:32:58;;;;;;;2.53;0.98;;;;;;;;;;4980351;28;20168;-61
2023/07/31 10:35:24;;;;;;;1.17;0.60;;;;;;;;;;4988205;28;20045;-61
2023/07/31 10:37:50;;;;;;;5.10;0.90;;;;;;;;;;4988093;28;20069;-61
2023/07/31 10:40:19;;;;;;;1.75;0.95;;;;;;;;;;4990737;28;20518;-62
2023/07/31 10:42:47;;;;;;;3.22;0.90;;;;;;;;;;4968588;28;20038;-61
2023/07/31 10:45:13;;;;;;;2.17;0.90;;;;;;;;;;4985553;28;20496;-61
2023/07/31 10:47:42;;;;;;;5.03;1.00;;;;;;;;;;4982938;28;20135;-61
2023/07/31 10:50:19;;;;;;;3.70;1.25;;;;;;;;;;4972617;28;20046;-62
2023/07/31 10:52:49;;;;;;;2.28;0.95;;;;;;;;;;4975682;28;20062;-61
2023/07/31 10:55:16;;;;;;;2.17;1.00;;;;;;;;;;4986368;28;20042;-61
2023/07/31 10:57:45;;;;;;;1.98;1.00;;;;;;;;;;4982040;28;20086;-61
2023/07/31 11:00:18;;;;;;;2.92;1.38;;;;;;;;;;4991529;28;20061;-61
2023/07/31 11:02:57;;;;;;;1.33;0.63;;;;;;;;;;4965251;28;20046;-61
2023/07/31 11:05:41;;;;;;;2.38;0.80;;;;;;;;;;4982860;28;20513;-62
2023/07/31 11:08:26;;;;;;;1.83;0.80;;;;;;;;;;4986580;28;20584;-61
2023/07/31 11:11:04;;;;;;;1.63;0.90;;;;;;;;;;4985699;28;20045;-62
2023/07/31 11:13:31;;;;;;;4.57;1.00;;;;;;;;;;4984396;28;20057;-62
2023/07/31 11:15:57;;;;;;;3.65;1.00;;;;;;;;;;4968359;28;20242;-62
2023/07/31 11:18:23;;;;;;;1.77;1.05;;;;;;;;;;4988634;28;20169;-61
2023/07/31 11:20:49;;;;;;;1.63;0.90;;;;;;;;;;4974808;28;20650;-62
2023/07/31 11:23:17;;;;;;;2.00;1.00;;;;;;;;;;4966410;28;20042;-61
2023/07/31 11:25:45;;;;;;;2.13;1.20;;;;;;;;;;4983765;28;20156;-61
2023/07/31 11:28:12;;;;;;;1.42;0.95;;;;;;;;;;4975920;28;20132;-61
2023/07/31 11:30:39;;;;;;;2.65;1.20;;;;;;;;;;4972748;28;20046;-61
2023/07/31 11:33:06;;;;;;;1.95;1.02;;;;;;;;;;4983998;28;20138;-61
2023/07/31 11:35:33;;;;;;;3.60;1.20;;;;;;;;;;4989553;28;20046;-61
2023/07/31 11:38:00;;;;;;;1.63;0.88;;;;;;;;;;4985769;28;20469;-61
2023/07/31 11:40:29;;;;;;;2.13;1.38;;;;;;;;;;4985850;28;20046;-61
2023/07/31 11:42:58;;;;;;;3.78;1.70;;;;;;;;;;4974964;28;20493;-61
2023/07/31 11:45:28;;;;;;;5.63;1.38;;;;;;;;;;4990401;28;20049;-61
2023/07/31 11:47:55;;;;;;;4.00;1.20;;;;;;;;;;4983524;28;20072;-62
2023/07/31 11:50:22;;;;;;;2.80;1.17;;;;;;;;;;4985457;28;20470;-60
2023/07/31 11:52:50;;;;;;;1.85;1.10;;;;;;;;;;4984219;28;20034;-61
2023/07/31 11:55:23;;;;;;;2.30;1.08;;;;;;;;;;4985719;28;20090;-61
2023/07/31 11:57:50;;;;;;;4.18;1.20;;;;;;;;;;4968614;28;20409;-62
2023/07/31 12:00:16;;;;;;;1.88;1.00;;;;;;;;;;4984494;28;20097;-61
2023/07/31 12:02:43;;;;;;;1.90;0.90;;;;;;;;;;4984858;28;20041;-61
2023/07/31 12:05:13;;;;;;;3.60;1.10;;;;;;;;;;4985021;28;20050;-59
2023/07/31 12:07:48;;;;;;;2.33;0.82;;;;;;;;;;4984791;28;20456;-61
2023/07/31 12:10:24;;;;;;;2.03;1.25;;;;;;;;;;4968710;28;20058;-60
2023/07/31 12:13:01;;;;;;;4.30;1.30;;;;;;;;;;4984989;28;20478;-60
2023/07/31 12:15:33;;;;;;;1.77;1.20;;;;;;;;;;4989479;28;20033;-61
2023/07/31 12:18:00;;;;;;;4.05;1.35;;;;;;;;;;4986827;28;20275;-61
2023/07/31 12:20:26;;;;;;;4.05;1.50;;;;;;;;;;4988077;28;20033;-61
2023/07/31 12:22:53;;;;;;;5.90;1.90;;;;;;;;;;4942639;28;20473;-61
2023/07/31 12:25:19;;;;;;;4.13;1.75;;;;;;;;;;4984695;28;20046;-61
2023/07/31 12:27:45;;;;;;;4.40;2.38;;;;;;;;;;4966778;28;20109;-61
2023/07/31 12:30:32;;;;;;;9.27;2.15;;;;;;;;;;4968077;28;20034;-64
2023/07/31 12:33:03;;;;;;;4.47;1.98;;;;;;;;;;4961149;28;20410;-61
2023/07/31 12:35:35;;;;;;;7.68;2.30;;;;;;;;;;4989502;28;20056;-61
2023/07/31 12:38:04;;;;;;;7.28;2.40;;;;;;;;;;4991601;28;20048;-61
2023/07/31 12:40:30;;;;;;;6.13;2.30;;;;;;;;;;4989352;28;20174;-61
2023/07/31 12:42:56;;;;;;;6.28;2.60;;;;;;;;;;4954831;28;20366;-61
2023/07/31 12:45:23;;;;;;;5.07;2.00;;;;;;;;;;4980497;28;20544;-60
2023/07/31 12:47:50;;;;;;;6.90;2.20;;;;;;;;;;4978899;28;20430;-61
2023/07/31 12:50:16;;;;;;;11.65;3.17;;;;;;;;;;4983878;28;20042;-62
2023/07/31 12:52:42;;;;;;;5.40;3.03;;;;;;;;;;4982386;28;20042;-62
2023/07/31 12:55:10;;;;;;;5.43;2.22;;;;;;;;;;4984257;28;20427;-61
2023/07/31 12:57:36;;;;;;;8.00;2.38;;;;;;;;;;4979973;28;20089;-61
2023/07/31 13:00:03;;;;;;;4.80;2.25;;;;;;;;;;4980941;28;20622;-62
2023/07/31 13:02:29;;;;;;;7.53;2.80;;;;;;;;;;4980775;28;20076;-62
2023/07/31 13:04:56;;;;;;;9.38;3.97;;;;;;;;;;4983387;28;20082;-61
2023/07/31 13:07:23;;;;;;;6.05;2.17;;;;;;;;;;4984705;28;20041;-62
2023/07/31 13:09:49;;;;;;;11.70;2.70;;;;;;;;;;4986323;28;20089;-62
2023/07/31 13:12:15;;;;;;;8.02;2.90;;;;;;;;;;4974196;28;20125;-62
2023/07/31 13:14:41;;;;;;;6.18;2.63;;;;;;;;;;4987114;28;20049;-62
2023/07/31 13:17:07;;;;;;;6.68;2.45;;;;;;;;;;4949762;28;20126;-62
2023/07/31 13:19:33;;;;;;;4.38;2.30;;;;;;;;;;4987010;28;20343;-62
2023/07/31 13:21:59;;;;;;;5.68;3.13;;;;;;;;;;4985142;28;20117;-62
2023/07/31 13:24:26;;;;;;;8.45;2.40;;;;;;;;;;4988603;28;20313;-62
2023/07/31 13:26:52;;;;;;;4.70;2.25;;;;;;;;;;4987228;28;20125;-61
2023/07/31 13:29:18;;;;;;;6.28;2.72;;;;;;;;;;4975139;28;20049;-62
2023/07/31 13:31:44;;;;;;;4.78;2.35;;;;;;;;;;4988170;28;20104;-62
2023/07/31 13:34:10;;;;;;;6.68;2.58;;;;;;;;;;4992483;28;20449;-62
2023/07/31 13:36:36;;;;;;;7.13;3.08;;;;;;;;;;4995424;28;20034;-62
2023/07/31 13:39:03;;;;;;;8.25;2.90;;;;;;;;;;4989382;28;20042;-62
2023/07/31 13:41:29;;;;;;;5.85;2.42;;;;;;;;;;4995791;28;20512;-62
2023/07/31 13:43:55;;;;;;;5.07;2.92;;;;;;;;;;4992825;28;20069;-62
2023/07/31 13:46:21;;;;;;;9.40;3.03;;;;;;;;;;4984849;28;20517;-62
2023/07/31 13:48:47;;;;;;;3.85;2.10;;;;;;;;;;4956313;28;20434;-62
2023/07/31 13:51:14;;;;;;;5.13;2.47;;;;;;;;;;4987649;28;20042;-62
2023/07/31 13:53:40;;;;;;;6.45;3.38;;;;;;;;;;4989195;28;20508;-62
2023/07/31 13:56:06;;;;;;;6.05;2.63;;;;;;;;;;4988966;28;20125;-62
2023/07/31 13:58:32;;;;;;;6.93;2.80;;;;;;;;;;4985053;28;20130;-61
2023/07/31 14:00:59;;;;;;;4.95;2.22;;;;;;;;;;4988010;28;20038;-62
2023/07/31 14:03:25;;;;;;;7.40;2.90;;;;;;;;;;4990632;28;20200;-62
2023/07/31 14:05:52;;;;;;;5.72;2.20;;;;;;;;;;4971136;28;20717;-62
2023/07/31 14:08:18;;;;;;;6.35;2.40;;;;;;;;;;4983871;28;20050;-61
2023/07/31 14:10:44;;;;;;;6.68;2.63;;;;;;;;;;4987972;28;20038;-61
2023/07/31 14:13:10;;;;;;;10.55;3.90;;;;;;;;;;4986927;28;20468;-61
2023/07/31 14:15:36;;;;;;;7.43;2.53;;;;;;;;;;4989876;28;20046;-62
2023/07/31 14:18:03;;;;;;;5.20;2.65;;;;;;;;;;4990804;28;20437;-61
2023/07/31 14:20:29;;;;;;;6.10;3.08;;;;;;;;;;4988183;28;20046;-61
2023/07/31 14:22:55;;;;;;;8.70;3.45;;;;;;;;;;4986360;28;20057;-61
2023/07/31 14:25:21;;;;;;;5.90;2.42;;;;;;;;;;4984240;28;20042;-61
2023/07/31 14:27:47;;;;;;;7.10;2.72;;;;;;;;;;4982327;28;20038;-62
2023/07/31 14:30:14;;;;;;;6.72;3.35;;;;;;;;;;4973528;28;20038;-62
2023/07/31 14:32:40;;;;;;;10.55;3.55;;;;;;;;;;4982237;28;20038;-61
2023/07/31 14:35:06;;;;;;;5.57;3.08;;;;;;;;;;4989290;28;20132;-62
2023/07/31 14:37:42;;;;;;;10.98;3.58;;;;;;;;;;4986701;28;20038;-62
2023/07/31 14:40:09;;;;;;;8.15;3.72;;;;;;;;;;4994516;28;20041;-61
2023/07/31 14:42:36;;;;;;;4.95;3.08;;;;;;;;;;4992303;28;20042;-62